createdAt,value
2019-04-10T00:00:41.968Z,7.98
2019-04-10T00:01:42.517Z,7.95
2019-04-10T00:02:41.986Z,7.97
2019-04-10T00:03:43.749Z,7.90
2019-04-10T00:04:43.181Z,7.86
2019-04-10T00:05:42.538Z,7.90
2019-04-10T00:06:42.032Z,7.97
2019-04-10T00:07:42.043Z,7.98
2019-04-10T00:08:42.242Z,7.97
2019-04-10T00:09:42.062Z,7.93
2019-04-10T00:10:42.071Z,7.87
2019-04-10T00:11:42.878Z,7.87
2019-04-10T00:12:42.331Z,7.92
2019-04-10T00:13:42.903Z,7.90
2019-04-10T00:14:42.878Z,7.85
2019-04-10T00:15:42.397Z,7.79
2019-04-10T00:16:42.510Z,7.74
2019-04-10T00:17:42.951Z,7.85
2019-04-10T00:18:42.263Z,7.77
2019-04-10T00:19:43.546Z,7.85
2019-04-10T00:20:42.726Z,7.85
2019-04-10T00:21:42.269Z,7.82
2019-04-10T00:22:42.376Z,7.80
2019-04-10T00:23:42.393Z,7.72
2019-04-10T00:24:42.770Z,7.71
2019-04-10T00:25:43.209Z,7.69
2019-04-10T00:26:42.249Z,7.69
2019-04-10T00:27:43.086Z,7.67
2019-04-10T00:28:43.500Z,7.69
2019-04-10T00:29:42.549Z,7.72
2019-04-10T00:30:43.033Z,7.63
2019-04-10T00:31:42.350Z,7.61
2019-04-10T00:32:42.347Z,7.63
2019-04-10T00:33:43.171Z,7.74
2019-04-10T00:34:42.479Z,7.68
2019-04-10T00:35:43.618Z,7.57
2019-04-10T00:36:43.537Z,7.49
2019-04-10T00:37:42.882Z,7.58
2019-04-10T00:38:42.382Z,7.49
2019-04-10T00:39:42.440Z,7.50
2019-04-10T00:40:42.407Z,7.40
2019-04-10T00:41:42.419Z,7.45
2019-04-10T00:42:43.270Z,7.45
2019-04-10T00:43:43.449Z,7.48
2019-04-10T00:44:42.451Z,7.42
2019-04-10T00:45:42.466Z,7.35
2019-04-10T00:46:42.467Z,7.46
2019-04-10T00:47:43.411Z,7.34
2019-04-10T00:48:42.639Z,7.24
2019-04-10T00:51:43.594Z,7.31
2019-04-10T00:52:44.083Z,7.20
2019-04-10T00:53:43.474Z,7.23
2019-04-10T00:54:43.423Z,7.23
2019-04-10T00:55:43.942Z,7.06
2019-04-10T00:56:43.410Z,7.21
2019-04-10T00:57:42.629Z,7.23
2019-04-10T00:58:43.626Z,7.25
2019-04-10T00:59:42.628Z,7.27
2019-04-10T01:00:43.348Z,7.21
2019-04-10T01:01:43.635Z,7.24
2019-04-10T01:02:42.947Z,7.17
2019-04-10T01:03:42.756Z,7.12
2019-04-10T01:04:42.665Z,7.10
2019-04-10T01:05:43.719Z,7.13
2019-04-10T01:06:42.684Z,7.12
2019-04-10T01:07:44.634Z,7.07
2019-04-10T01:08:42.846Z,7.10
2019-04-10T01:09:43.696Z,7.23
2019-04-10T01:10:42.727Z,7.13
2019-04-10T01:11:43.386Z,7.06
2019-04-10T01:12:43.714Z,7.15
2019-04-10T01:13:43.117Z,7.09
2019-04-10T01:15:43.072Z,7.25
2019-04-10T01:16:43.889Z,7.12
2019-04-10T01:17:42.811Z,7.05
2019-04-10T01:18:43.586Z,7.16
2019-04-10T01:19:43.891Z,7.06
2019-04-10T01:20:43.848Z,6.98
2019-04-10T01:21:42.843Z,6.98
2019-04-10T01:22:43.473Z,6.98
2019-04-10T01:23:42.866Z,7.03
2019-04-10T01:24:43.891Z,6.89
2019-04-10T01:25:42.981Z,6.88
2019-04-10T01:26:43.309Z,6.92
2019-04-10T01:27:42.902Z,6.88
2019-04-10T01:28:42.938Z,6.88
2019-04-10T01:29:43.943Z,6.88
2019-04-10T01:30:42.954Z,6.84
2019-04-10T01:31:43.529Z,6.74
2019-04-10T01:32:43.903Z,6.85
2019-04-10T01:33:43.085Z,6.85
2019-04-10T01:34:43.362Z,6.85
2019-04-10T01:35:42.984Z,6.84
2019-04-10T01:36:43.846Z,6.67
2019-04-10T01:37:49.413Z,6.69
2019-04-10T01:38:43.818Z,6.67
2019-04-10T01:39:43.093Z,6.66
2019-04-10T01:40:43.434Z,6.67
2019-04-10T01:41:43.882Z,6.62
2019-04-10T01:42:43.126Z,6.67
2019-04-10T01:43:43.364Z,6.62
2019-04-10T01:44:43.289Z,6.58
2019-04-10T01:45:44.023Z,6.55
2019-04-10T01:46:43.106Z,6.55
2019-04-10T01:47:43.502Z,6.52
2019-04-10T01:48:44.026Z,6.55
2019-04-10T01:49:43.963Z,6.41
2019-04-10T01:50:43.147Z,6.49
2019-04-10T01:51:43.533Z,6.56
2019-04-10T01:52:43.164Z,6.69
2019-04-10T01:53:44.161Z,6.56
2019-04-10T01:54:45.515Z,6.58
2019-04-10T01:55:43.199Z,6.51
2019-04-10T01:56:43.851Z,6.51
2019-04-10T01:57:44.146Z,6.54
2019-04-10T01:58:43.453Z,6.41
2019-04-10T01:59:43.238Z,6.48
2019-04-10T02:00:43.812Z,6.41
2019-04-10T02:01:43.261Z,6.27
2019-04-10T02:02:43.359Z,6.22
2019-04-10T02:03:44.411Z,6.33
2019-04-10T02:04:43.854Z,6.19
2019-04-10T02:05:43.309Z,6.19
2019-04-10T02:06:43.327Z,6.14
2019-04-10T02:07:44.456Z,6.17
2019-04-10T02:08:43.336Z,6.28
2019-04-10T02:09:43.549Z,6.40
2019-04-10T02:11:43.363Z,6.33
2019-04-10T02:12:43.775Z,6.36
2019-04-10T02:13:44.511Z,6.31
2019-04-10T02:14:43.440Z,6.27
2019-04-10T02:15:43.967Z,6.21
2019-04-10T02:16:43.413Z,6.17
2019-04-10T02:17:44.502Z,6.19
2019-04-10T02:18:43.777Z,6.17
2019-04-10T02:19:43.447Z,6.17
2019-04-10T02:20:43.459Z,6.27
2019-04-10T02:21:44.244Z,6.30
2019-04-10T02:22:43.721Z,6.22
2019-04-10T02:23:43.487Z,6.31
2019-04-10T02:24:43.499Z,6.25
2019-04-10T02:25:43.508Z,6.22
2019-04-10T02:26:43.522Z,6.17
2019-04-10T02:27:44.635Z,6.14
2019-04-10T02:28:43.570Z,6.01
2019-04-10T02:29:43.970Z,6.03
2019-04-10T02:30:43.854Z,6.14
2019-04-10T02:31:44.178Z,6.12
2019-04-10T02:32:47.708Z,6.15
2019-04-10T02:33:43.838Z,6.15
2019-04-10T02:34:44.293Z,6.12
2019-04-10T02:35:43.618Z,6.11
2019-04-10T02:36:44.504Z,6.08
2019-04-10T02:37:43.636Z,6.11
2019-04-10T02:38:59.591Z,6.08
2019-04-10T02:39:47.926Z,6.06
2019-04-10T02:40:45.574Z,6.09
2019-04-10T02:41:44.041Z,5.96
2019-04-10T02:42:45.035Z,5.93
2019-04-10T02:43:45.164Z,5.99
2019-04-10T02:45:45.257Z,5.93
2019-04-10T02:46:45.045Z,5.90
2019-04-10T02:47:44.848Z,5.83
2019-04-10T02:48:43.748Z,5.86
2019-04-10T02:49:44.592Z,5.85
2019-04-10T02:50:44.906Z,5.85
2019-04-10T02:51:45.270Z,5.86
2019-04-10T02:52:45.724Z,5.86
2019-04-10T02:53:43.961Z,5.82
2019-04-10T02:54:43.804Z,5.97
2019-04-10T02:55:43.818Z,5.96
2019-04-10T02:56:45.590Z,5.81
2019-04-10T02:58:44.563Z,5.79
2019-04-10T02:59:45.374Z,5.82
2019-04-10T03:00:44.359Z,5.76
2019-04-10T03:01:44.062Z,5.68
2019-04-10T03:02:45.205Z,5.72
2019-04-10T03:03:44.657Z,5.79
2019-04-10T03:04:44.530Z,5.82
2019-04-10T03:05:44.792Z,5.90
2019-04-10T03:06:45.227Z,5.82
2019-04-10T03:07:44.315Z,5.72
2019-04-10T03:08:58.984Z,5.78
2019-04-10T03:09:56.411Z,5.74
2019-04-10T03:10:49.465Z,5.82
2019-04-10T03:11:45.430Z,5.71
2019-04-10T03:12:44.327Z,5.81
2019-04-10T03:13:45.208Z,5.76
2019-04-10T03:14:45.934Z,5.76
2019-04-10T03:15:44.017Z,5.72
2019-04-10T03:16:44.031Z,5.76
2019-04-10T03:17:44.149Z,5.72
2019-04-10T03:18:45.128Z,5.67
2019-04-10T03:19:44.059Z,5.74
2019-04-10T03:20:44.711Z,5.68
2019-04-10T03:21:45.029Z,5.58
2019-04-10T03:22:45.091Z,5.58
2019-04-10T03:23:44.098Z,5.63
2019-04-10T03:24:44.402Z,5.60
2019-04-10T03:25:44.117Z,5.53
2019-04-10T03:26:44.129Z,5.53
2019-04-10T03:27:44.801Z,5.46
2019-04-10T03:28:44.241Z,5.35
2019-04-10T03:29:45.010Z,5.42
2019-04-10T03:30:44.922Z,5.28
2019-04-10T03:31:45.264Z,5.40
2019-04-10T03:32:51.629Z,5.40
2019-04-10T03:33:47.228Z,5.43
2019-04-10T03:34:47.531Z,5.49
2019-04-10T03:35:45.191Z,5.42
2019-04-10T03:36:45.416Z,5.28
2019-04-10T03:37:44.635Z,5.28
2019-04-10T03:38:56.236Z,5.35
2019-04-10T03:39:44.260Z,5.38
2019-04-10T03:40:44.273Z,5.30
2019-04-10T03:41:44.375Z,5.27
2019-04-10T03:42:45.449Z,5.30
2019-04-10T03:43:44.375Z,5.33
2019-04-10T03:44:45.184Z,5.35
2019-04-10T03:45:44.524Z,5.18
2019-04-10T03:46:44.831Z,5.28
2019-04-10T03:47:45.044Z,5.22
2019-04-10T03:49:44.437Z,5.42
2019-04-10T03:50:44.436Z,5.48
2019-04-10T03:51:45.021Z,5.53
2019-04-10T03:52:45.360Z,5.45
2019-04-10T03:53:44.575Z,5.51
2019-04-10T03:54:44.419Z,5.42
2019-04-10T03:55:45.266Z,5.39
2019-04-10T03:56:45.700Z,5.31
2019-04-10T03:57:44.881Z,5.33
2019-04-10T03:58:44.450Z,5.24
2019-04-10T03:59:45.422Z,5.22
2019-04-10T04:00:44.567Z,5.18
2019-04-10T04:01:44.494Z,5.18
2019-04-10T04:02:44.491Z,5.18
2019-04-10T04:03:44.780Z,5.21
2019-04-10T04:04:44.522Z,5.12
2019-04-10T04:05:44.674Z,5.13
2019-04-10T04:06:44.533Z,5.06
2019-04-10T04:07:44.543Z,4.99
2019-04-10T04:09:44.563Z,5.00
2019-04-10T04:10:44.768Z,5.03
2019-04-10T04:11:46.047Z,5.00
2019-04-10T04:12:44.675Z,4.94
2019-04-10T04:13:44.608Z,4.97
2019-04-10T04:14:44.615Z,5.00
2019-04-10T04:15:44.647Z,4.99
2019-04-10T04:16:44.629Z,4.97
2019-04-10T04:17:44.648Z,4.92
2019-04-10T04:18:45.631Z,4.96
2019-04-10T04:19:44.673Z,4.97
2019-04-10T04:20:45.362Z,4.86
2019-04-10T04:21:44.693Z,4.86
2019-04-10T04:23:44.748Z,4.89
2019-04-10T04:24:44.776Z,4.78
2019-04-10T04:25:44.717Z,4.86
2019-04-10T04:26:44.722Z,4.80
2019-04-10T04:27:44.771Z,4.80
2019-04-10T04:28:44.751Z,4.67
2019-04-10T04:29:45.426Z,4.80
2019-04-10T04:30:45.683Z,4.63
2019-04-10T04:31:44.782Z,4.70
2019-04-10T04:32:44.785Z,4.77
2019-04-10T04:33:45.405Z,4.66
2019-04-10T04:35:49.023Z,4.70
2019-04-10T04:36:45.154Z,4.63
2019-04-10T04:39:45.335Z,4.66
2019-04-10T04:40:44.861Z,4.69
2019-04-10T04:41:44.878Z,4.69
2019-04-10T04:42:45.007Z,4.69
2019-04-10T04:43:47.239Z,4.73
2019-04-10T04:44:45.414Z,4.73
2019-04-10T04:45:44.912Z,4.72
2019-04-10T04:46:45.042Z,4.73
2019-04-10T04:47:45.208Z,4.70
2019-04-10T04:48:45.329Z,4.73
2019-04-10T04:49:44.978Z,4.62
2019-04-10T04:50:45.730Z,4.66
2019-04-10T04:51:45.721Z,4.69
2019-04-10T04:52:45.643Z,4.60
2019-04-10T04:53:45.105Z,4.63
2019-04-10T04:54:45.640Z,4.65
2019-04-10T04:55:45.301Z,4.58
2019-04-10T04:56:46.392Z,4.59
2019-04-10T04:57:45.105Z,4.54
2019-04-10T04:58:45.618Z,4.62
2019-04-10T04:59:45.053Z,4.51
2019-04-10T05:00:45.938Z,4.54
2019-04-10T05:01:45.171Z,4.58
2019-04-10T05:02:45.486Z,4.58
2019-04-10T05:03:46.416Z,4.59
2019-04-10T05:04:46.370Z,4.54
2019-04-10T05:05:45.903Z,4.60
2019-04-10T05:06:47.708Z,4.66
2019-04-10T05:07:54.614Z,4.60
2019-04-10T05:09:48.231Z,4.44
2019-04-10T05:10:47.376Z,4.37
2019-04-10T05:11:45.523Z,4.47
2019-04-10T05:12:45.993Z,4.40
2019-04-10T05:13:45.202Z,4.41
2019-04-10T05:14:46.200Z,4.47
2019-04-10T05:15:45.614Z,4.55
2019-04-10T05:16:46.298Z,4.60
2019-04-10T05:18:45.652Z,4.54
2019-04-10T05:19:45.243Z,4.52
2019-04-10T05:20:49.768Z,4.60
2019-04-10T05:21:45.752Z,4.42
2019-04-10T05:23:45.388Z,4.50
2019-04-10T05:24:47.167Z,4.52
2019-04-10T05:26:45.316Z,4.45
2019-04-10T05:27:45.314Z,4.37
2019-04-10T05:28:45.357Z,4.36
2019-04-10T05:29:45.415Z,4.50
2019-04-10T05:30:46.029Z,4.37
2019-04-10T05:31:46.810Z,4.47
2019-04-10T05:33:45.381Z,4.51
2019-04-10T05:34:46.636Z,4.54
2019-04-10T05:35:45.397Z,4.58
2019-04-10T05:36:45.536Z,4.55
2019-04-10T05:38:48.144Z,4.58
2019-04-10T05:40:45.473Z,4.54
2019-04-10T05:41:46.930Z,4.54
2019-04-10T05:42:47.082Z,4.54
2019-04-10T05:44:46.453Z,4.47
2019-04-10T05:45:46.492Z,4.58
2019-04-10T05:46:46.536Z,4.48
2019-04-10T05:47:46.569Z,4.45
2019-04-10T05:48:46.294Z,4.63
2019-04-10T05:49:45.757Z,4.63
2019-04-10T05:50:54.515Z,4.69
2019-04-10T05:51:45.752Z,4.86
2019-04-10T05:52:45.555Z,4.59
2019-04-10T05:53:45.618Z,4.78
2019-04-10T05:54:45.813Z,4.80
2019-04-10T05:55:45.583Z,4.78
2019-04-10T05:56:46.754Z,4.80
2019-04-10T05:57:45.794Z,4.82
2019-04-10T06:00:45.652Z,4.80
2019-04-10T06:01:45.786Z,4.85
2019-04-10T06:02:45.646Z,4.80
2019-04-10T06:03:49.178Z,4.86
2019-04-10T06:04:48.065Z,4.88
2019-04-10T06:05:46.540Z,4.85
2019-04-10T06:06:46.486Z,4.82
2019-04-10T06:07:47.546Z,4.88
2019-04-10T06:09:54.886Z,4.94
2019-04-10T06:10:45.746Z,5.00
2019-04-10T06:11:47.245Z,5.02
2019-04-10T06:12:46.688Z,4.97
2019-04-10T06:13:45.805Z,4.97
2019-04-10T06:14:46.322Z,5.00
2019-04-10T06:15:45.782Z,5.09
2019-04-10T06:16:46.831Z,5.36
2019-04-10T06:17:46.838Z,5.25
2019-04-10T06:18:47.130Z,5.33
2019-04-10T06:19:46.800Z,5.24
2019-04-10T06:20:47.265Z,5.28
2019-04-10T06:21:46.191Z,5.20
2019-04-10T06:22:45.845Z,5.07
2019-04-10T06:23:46.372Z,5.03
2019-04-10T06:24:46.746Z,5.00
2019-04-10T06:25:45.905Z,4.97
2019-04-10T06:26:45.991Z,4.89
2019-04-10T06:27:45.909Z,5.00
2019-04-10T06:29:46.242Z,4.94
2019-04-10T06:30:46.009Z,4.94
2019-04-10T06:31:46.997Z,5.02
2019-04-10T06:32:47.308Z,4.96
2019-04-10T06:33:46.415Z,5.06
2019-04-10T06:34:46.201Z,5.12
2019-04-10T06:35:46.857Z,5.18
2019-04-10T06:36:46.348Z,5.28
2019-04-10T06:38:48.067Z,5.21
2019-04-10T06:39:47.322Z,5.30
2019-04-10T06:40:46.400Z,5.43
2019-04-10T06:41:46.838Z,5.39
2019-04-10T06:42:50.751Z,5.35
2019-04-10T06:44:46.377Z,5.33
2019-04-10T06:45:46.199Z,5.31
2019-04-10T06:46:46.586Z,5.28
2019-04-10T06:49:46.129Z,5.27
2019-04-10T06:51:46.304Z,5.38
2019-04-10T06:52:47.128Z,5.42
2019-04-10T06:53:50.349Z,5.51
2019-04-10T06:54:47.024Z,5.48
2019-04-10T06:55:46.876Z,5.58
2019-04-10T06:56:48.345Z,5.58
2019-04-10T06:57:52.058Z,5.58
2019-04-10T06:59:48.178Z,5.64
2019-04-10T07:00:51.024Z,5.64
2019-04-10T07:01:51.398Z,5.65
2019-04-10T07:02:46.349Z,5.74
2019-04-10T07:03:56.561Z,5.74
2019-04-10T07:04:53.073Z,5.67
2019-04-10T07:06:00.499Z,5.72
2019-04-10T07:06:58.156Z,5.85
2019-04-10T07:07:52.088Z,5.82
2019-04-10T07:08:50.204Z,5.90
2019-04-10T07:10:54.275Z,5.96
2019-04-10T07:11:47.928Z,5.96
2019-04-10T07:12:47.557Z,6.01
2019-04-10T07:13:46.349Z,6.09
2019-04-10T07:14:50.462Z,6.14
2019-04-10T07:15:46.925Z,6.19
2019-04-10T07:16:46.560Z,6.15
2019-04-10T07:17:47.110Z,6.04
2019-04-10T07:18:49.022Z,6.00
2019-04-10T07:19:46.444Z,6.06
2019-04-10T07:20:47.932Z,6.08
2019-04-10T07:21:47.130Z,6.06
2019-04-10T07:22:47.208Z,6.11
2019-04-10T07:23:46.931Z,6.19
2019-04-10T07:24:46.736Z,6.14
2019-04-10T07:25:47.274Z,6.30
2019-04-10T07:26:48.162Z,6.30
2019-04-10T07:27:47.811Z,6.31
2019-04-10T07:28:47.878Z,6.41
2019-04-10T07:29:50.863Z,6.49
2019-04-10T07:30:47.811Z,6.40
2019-04-10T07:31:46.706Z,6.56
2019-04-10T07:32:49.000Z,6.69
2019-04-10T07:35:47.891Z,6.88
2019-04-10T07:38:46.930Z,6.91
2019-04-10T07:39:47.128Z,6.89
2019-04-10T07:41:47.353Z,6.79
2019-04-10T07:42:46.698Z,6.89
2019-04-10T07:43:47.348Z,6.88
2019-04-10T07:44:46.667Z,6.89
2019-04-10T07:45:47.568Z,6.89
2019-04-10T07:46:46.759Z,6.87
2019-04-10T07:48:46.790Z,6.91
2019-04-10T07:49:46.840Z,6.95
2019-04-10T07:50:47.506Z,6.98
2019-04-10T07:51:47.715Z,6.97
2019-04-10T07:54:46.776Z,6.95
2019-04-10T07:56:00.653Z,7.02
2019-04-10T07:56:47.278Z,7.10
2019-04-10T07:57:48.780Z,7.17
2019-04-10T07:58:46.910Z,7.34
2019-04-10T08:00:49.819Z,7.43
2019-04-10T08:01:47.430Z,7.49
2019-04-10T08:02:49.136Z,7.31
2019-04-10T08:06:47.354Z,7.30
2019-04-10T08:07:47.306Z,7.30
2019-04-10T08:08:46.965Z,7.45
2019-04-10T08:09:47.027Z,7.46
2019-04-10T08:11:47.118Z,7.45
2019-04-10T08:12:50.906Z,7.50
2019-04-10T08:13:47.137Z,7.64
2019-04-10T08:14:46.979Z,7.77
2019-04-10T08:15:46.987Z,7.85
2019-04-10T08:16:47.658Z,7.87
2019-04-10T08:17:51.283Z,7.98
2019-04-10T08:18:48.146Z,7.97
2019-04-10T08:20:47.058Z,8.01
2019-04-10T08:21:47.054Z,8.01
2019-04-10T08:22:47.192Z,7.89
2019-04-10T08:23:47.079Z,7.97
2019-04-10T08:24:47.364Z,8.10
2019-04-10T08:25:47.512Z,8.11
2019-04-10T08:26:47.271Z,8.18
2019-04-10T08:27:47.180Z,8.20
2019-04-10T08:28:47.500Z,8.25
2019-04-10T08:29:48.395Z,8.26
2019-04-10T08:30:48.256Z,8.19
2019-04-10T08:31:48.276Z,8.16
2019-04-10T08:32:57.251Z,8.07
2019-04-10T08:36:48.130Z,8.34
2019-04-10T08:37:48.605Z,8.41
2019-04-10T08:38:47.250Z,8.53
2019-04-10T08:39:49.256Z,8.73
2019-04-10T08:40:48.218Z,8.70
2019-04-10T08:41:48.106Z,8.77
2019-04-10T08:42:49.225Z,8.76
2019-04-10T08:43:48.203Z,8.73
2019-04-10T08:44:47.304Z,8.76
2019-04-10T08:45:51.603Z,8.71
2019-04-10T08:46:48.242Z,8.84
2019-04-10T08:47:47.380Z,8.70
2019-04-10T08:48:47.721Z,8.84
2019-04-10T08:49:47.460Z,8.76
2019-04-10T08:50:47.395Z,8.87
2019-04-10T08:51:48.188Z,8.92
2019-04-10T08:52:49.021Z,8.87
2019-04-10T08:53:48.851Z,8.81
2019-04-10T08:54:47.671Z,8.70
2019-04-10T08:55:48.497Z,8.71
2019-04-10T08:56:47.828Z,8.80
2019-04-10T08:57:47.483Z,8.81
2019-04-10T08:58:48.357Z,8.81
2019-04-10T08:59:48.327Z,8.84
2019-04-10T09:00:52.390Z,8.87
2019-04-10T09:01:47.521Z,8.92
2019-04-10T09:02:48.965Z,9.08
2019-04-10T09:03:47.564Z,9.10
2019-04-10T09:04:48.955Z,9.18
2019-04-10T09:05:49.091Z,9.33
2019-04-10T09:06:47.622Z,9.48
2019-04-10T09:07:48.521Z,9.48
2019-04-10T09:08:48.846Z,9.42
2019-04-10T09:11:47.608Z,9.48
2019-04-10T09:12:47.661Z,9.68
2019-04-10T09:13:48.833Z,9.57
2019-04-10T09:14:49.568Z,9.64
2019-04-10T09:15:47.896Z,9.75
2019-04-10T09:16:48.923Z,9.71
2019-04-10T09:17:49.235Z,9.61
2019-04-10T09:18:47.741Z,9.53
2019-04-10T09:19:48.456Z,9.57
2019-04-10T09:20:48.747Z,9.36
2019-04-10T09:21:47.957Z,9.54
2019-04-10T09:23:10.803Z,9.57
2019-04-10T09:23:52.458Z,9.56
2019-04-10T09:24:48.870Z,9.66
2019-04-10T09:25:47.773Z,9.83
2019-04-10T09:26:48.677Z,9.79
2019-04-10T09:27:47.819Z,9.97
2019-04-10T09:28:48.621Z,9.91
2019-04-10T09:29:48.584Z,10.02
2019-04-10T09:30:48.998Z,9.93
2019-04-10T09:31:48.142Z,10.01
2019-04-10T09:32:48.575Z,9.96
2019-04-10T09:33:47.894Z,9.79
2019-04-10T09:34:48.228Z,9.76
2019-04-10T09:35:48.992Z,10.05
2019-04-10T09:37:48.355Z,10.04
2019-04-10T09:38:47.944Z,9.97
2019-04-10T09:39:50.624Z,9.99
2019-04-10T09:40:48.858Z,9.97
2019-04-10T09:41:48.128Z,10.01
2019-04-10T09:43:48.138Z,10.15
2019-04-10T09:44:48.801Z,10.14
2019-04-10T09:45:48.125Z,10.08
2019-04-10T09:46:48.017Z,10.20
2019-04-10T09:47:48.129Z,10.23
2019-04-10T09:48:48.035Z,10.20
2019-04-10T09:49:49.210Z,10.36
2019-04-10T09:50:48.237Z,10.42
2019-04-10T09:51:48.207Z,10.59
2019-04-10T09:52:48.366Z,10.56
2019-04-10T09:53:48.904Z,10.76
2019-04-10T09:54:48.927Z,10.78
2019-04-10T09:55:49.002Z,10.82
2019-04-10T09:56:48.156Z,10.81
2019-04-10T09:57:48.166Z,10.73
2019-04-10T09:58:49.079Z,10.82
2019-04-10T09:59:48.945Z,10.81
2019-04-10T10:00:48.295Z,10.94
2019-04-10T10:01:48.529Z,10.99
2019-04-10T10:02:48.244Z,11.04
2019-04-10T10:03:48.722Z,11.04
2019-04-10T10:04:48.314Z,11.07
2019-04-10T10:05:48.513Z,11.03
2019-04-10T10:06:49.371Z,11.11
2019-04-10T10:07:48.706Z,11.09
2019-04-10T10:08:48.506Z,11.14
2019-04-10T10:09:49.242Z,11.29
2019-04-10T10:10:49.158Z,11.28
2019-04-10T10:11:49.154Z,11.19
2019-04-10T10:12:48.523Z,11.14
2019-04-10T10:14:48.451Z,11.04
2019-04-10T10:16:48.462Z,11.22
2019-04-10T10:17:48.836Z,11.33
2019-04-10T10:18:48.405Z,11.32
2019-04-10T10:19:48.659Z,11.44
2019-04-10T10:20:48.443Z,11.47
2019-04-10T10:21:48.444Z,11.46
2019-04-10T10:22:49.446Z,11.58
2019-04-10T10:23:48.465Z,11.57
2019-04-10T10:24:48.916Z,11.70
2019-04-10T10:25:48.511Z,11.60
2019-04-10T10:26:49.379Z,11.60
2019-04-10T10:27:48.908Z,11.58
2019-04-10T10:28:48.529Z,11.54
2019-04-10T10:29:48.552Z,11.46
2019-04-10T10:30:49.418Z,11.47
2019-04-10T10:31:50.772Z,11.52
2019-04-10T10:32:48.970Z,11.55
2019-04-10T10:33:48.600Z,11.57
2019-04-10T10:34:48.824Z,11.60
2019-04-10T10:35:49.622Z,11.73
2019-04-10T10:36:50.542Z,11.83
2019-04-10T10:37:48.651Z,12.02
2019-04-10T10:38:53.178Z,11.90
2019-04-10T10:39:48.664Z,11.83
2019-04-10T10:40:48.780Z,11.85
2019-04-10T10:42:49.158Z,11.70
2019-04-10T10:43:49.325Z,11.75
2019-04-10T10:44:48.721Z,11.70
2019-04-10T10:45:49.205Z,11.61
2019-04-10T10:47:48.759Z,11.76
2019-04-10T10:48:48.773Z,11.86
2019-04-10T10:49:48.833Z,11.94
2019-04-10T10:50:49.777Z,12.04
2019-04-10T10:51:49.008Z,12.09
2019-04-10T10:52:49.998Z,12.27
2019-04-10T10:53:48.831Z,12.37
2019-04-10T10:54:49.395Z,12.52
2019-04-10T10:55:49.699Z,12.46
2019-04-10T10:56:48.894Z,12.52
2019-04-10T10:57:49.127Z,12.41
2019-04-10T10:58:50.170Z,12.20
2019-04-10T10:59:49.524Z,12.20
2019-04-10T11:00:50.101Z,12.17
2019-04-10T11:01:49.144Z,12.21
2019-04-10T11:02:49.875Z,12.20
2019-04-10T11:03:49.166Z,12.07
2019-04-10T11:05:50.644Z,12.19
2019-04-10T11:06:56.069Z,12.17
2019-04-10T11:07:49.052Z,12.27
2019-04-10T11:08:49.517Z,12.27
2019-04-10T11:09:50.295Z,12.16
2019-04-10T11:11:49.482Z,12.21
2019-04-10T11:12:50.769Z,12.35
2019-04-10T11:13:49.093Z,12.34
2019-04-10T11:14:49.732Z,12.34
2019-04-10T11:15:49.978Z,12.53
2019-04-10T11:16:49.860Z,12.29
2019-04-10T11:17:49.988Z,12.28
2019-04-10T11:18:50.809Z,12.10
2019-04-10T11:19:49.240Z,12.12
2019-04-10T11:20:49.907Z,12.21
2019-04-10T11:21:51.602Z,12.41
2019-04-10T11:22:49.650Z,12.47
2019-04-10T11:23:49.579Z,12.64
2019-04-10T11:24:49.663Z,12.65
2019-04-10T11:25:50.345Z,12.68
2019-04-10T11:26:50.527Z,12.47
2019-04-10T11:27:50.213Z,12.41
2019-04-10T11:28:49.704Z,12.09
2019-04-10T11:30:49.355Z,12.17
2019-04-10T11:31:49.451Z,12.21
2019-04-10T11:32:50.784Z,12.16
2019-04-10T11:33:52.997Z,12.29
2019-04-10T11:34:50.679Z,12.49
2019-04-10T11:35:49.483Z,12.50
2019-04-10T11:37:12.119Z,12.53
2019-04-10T11:37:53.235Z,12.74
2019-04-10T11:38:49.491Z,12.53
2019-04-10T11:40:49.864Z,12.57
2019-04-10T11:41:50.448Z,12.62
2019-04-10T11:42:51.518Z,12.78
2019-04-10T11:43:50.124Z,12.77
2019-04-10T11:44:51.687Z,12.68
2019-04-10T11:45:53.805Z,12.74
2019-04-10T11:46:51.879Z,12.77
2019-04-10T11:47:51.227Z,12.78
2019-04-10T11:48:51.914Z,12.86
2019-04-10T11:49:49.734Z,13.04
2019-04-10T11:50:51.026Z,13.01
2019-04-10T11:51:50.936Z,13.00
2019-04-10T11:52:53.226Z,12.93
2019-04-10T11:53:53.507Z,12.70
2019-04-10T11:54:50.029Z,12.65
2019-04-10T11:55:52.863Z,12.62
2019-04-10T11:56:52.682Z,12.47
2019-04-10T11:57:51.528Z,12.42
2019-04-10T11:58:55.580Z,12.52
2019-04-10T11:59:49.715Z,12.74
2019-04-10T12:01:53.058Z,12.92
2019-04-10T12:02:52.519Z,13.08
2019-04-10T12:03:52.315Z,13.14
2019-04-10T12:04:55.923Z,13.30
2019-04-10T12:05:51.789Z,13.39
2019-04-10T12:06:53.588Z,13.36
2019-04-10T12:08:17.978Z,13.29
2019-04-10T12:09:13.577Z,13.25
2019-04-10T12:11:05.222Z,12.86
2019-04-10T12:11:49.954Z,12.56
2019-04-10T12:12:51.461Z,12.62
2019-04-10T12:13:50.536Z,12.72
2019-04-10T12:14:50.098Z,12.71
2019-04-10T12:15:50.469Z,12.64
2019-04-10T12:16:49.928Z,12.62
2019-04-10T12:17:49.992Z,12.50
2019-04-10T12:18:50.930Z,12.56
2019-04-10T12:19:49.962Z,12.87
2019-04-10T12:20:49.975Z,13.01
2019-04-10T12:21:50.383Z,12.90
2019-04-10T12:22:49.997Z,12.74
2019-04-10T12:23:50.200Z,12.78
2019-04-10T12:24:51.277Z,13.14
2019-04-10T12:26:50.117Z,13.62
2019-04-10T12:27:51.511Z,13.49
2019-04-10T12:28:50.244Z,13.39
2019-04-10T12:30:51.255Z,13.08
2019-04-10T12:31:52.340Z,13.03
2019-04-10T12:32:50.267Z,12.97
2019-04-10T12:33:50.718Z,13.08
2019-04-10T12:34:51.144Z,13.14
2019-04-10T12:35:50.259Z,13.20
2019-04-10T12:36:51.849Z,13.25
2019-04-10T12:38:01.301Z,13.17
2019-04-10T12:38:50.669Z,13.42
2019-04-10T12:39:50.342Z,13.41
2019-04-10T12:40:50.921Z,13.46
2019-04-10T12:41:50.250Z,13.44
2019-04-10T12:42:50.413Z,13.44
2019-04-10T12:43:51.416Z,13.42
2019-04-10T12:44:51.386Z,13.55
2019-04-10T12:45:50.685Z,13.63
2019-04-10T12:46:51.176Z,13.71
2019-04-10T12:47:50.575Z,13.81
2019-04-10T12:48:50.686Z,13.79
2019-04-10T12:49:50.368Z,13.77
2019-04-10T12:50:50.832Z,13.84
2019-04-10T12:51:50.400Z,13.91
2019-04-10T12:52:51.281Z,14.00
2019-04-10T12:53:50.417Z,14.07
2019-04-10T12:54:51.187Z,14.03
2019-04-10T12:55:51.432Z,13.99
2019-04-10T12:56:50.610Z,13.49
2019-04-10T12:57:51.044Z,13.46
2019-04-10T12:58:50.976Z,13.51
2019-04-10T12:59:50.506Z,13.75
2019-04-10T13:00:50.638Z,14.15
2019-04-10T13:01:51.102Z,14.32
2019-04-10T13:02:50.548Z,14.37
2019-04-10T13:03:51.530Z,14.33
2019-04-10T13:04:50.571Z,14.25
2019-04-10T13:05:51.546Z,14.27
2019-04-10T13:06:52.579Z,14.25
2019-04-10T13:07:51.912Z,14.37
2019-04-10T13:09:00.800Z,14.28
2019-04-10T13:11:51.010Z,14.17
2019-04-10T13:12:50.714Z,13.97
2019-04-10T13:13:51.305Z,14.00
2019-04-10T13:14:50.789Z,13.95
2019-04-10T13:15:51.900Z,13.96
2019-04-10T13:16:50.736Z,14.06
2019-04-10T13:17:51.052Z,14.14
2019-04-10T13:18:50.783Z,13.89
2019-04-10T13:19:51.441Z,13.82
2019-04-10T13:20:50.803Z,13.81
2019-04-10T13:21:51.666Z,13.96
2019-04-10T13:22:50.861Z,14.04
2019-04-10T13:23:51.411Z,14.03
2019-04-10T13:24:52.054Z,14.04
2019-04-10T13:25:59.741Z,14.21
2019-04-10T13:26:51.052Z,14.58
2019-04-10T13:27:52.721Z,14.58
2019-04-10T13:28:51.824Z,14.33
2019-04-10T13:29:52.190Z,14.15
2019-04-10T13:30:53.793Z,14.03
2019-04-10T13:31:51.646Z,13.97
2019-04-10T13:32:51.926Z,13.87
2019-04-10T13:34:51.353Z,14.21
2019-04-10T13:36:51.611Z,14.70
2019-04-10T13:39:51.148Z,15.19
2019-04-10T13:40:52.131Z,15.23
2019-04-10T13:41:52.616Z,15.06
2019-04-10T13:42:51.607Z,14.91
2019-04-10T13:44:51.254Z,15.23
2019-04-10T13:46:51.285Z,15.07
2019-04-10T13:49:52.481Z,15.57
2019-04-10T13:50:52.024Z,15.87
2019-04-10T13:51:51.884Z,15.74
2019-04-10T13:53:52.241Z,15.67
2019-04-10T13:54:51.278Z,15.93
2019-04-10T13:55:51.286Z,16.41
2019-04-10T13:56:53.089Z,16.71
2019-04-10T13:57:51.317Z,16.76
2019-04-10T13:58:51.333Z,16.97
2019-04-10T14:01:52.199Z,17.52
2019-04-10T14:02:52.110Z,18.23
2019-04-10T14:03:52.366Z,18.67
2019-04-10T14:05:52.893Z,19.37
2019-04-10T14:06:51.502Z,19.46
2019-04-10T14:07:51.695Z,19.28
2019-04-10T14:09:10.939Z,19.33
2019-04-10T14:09:52.503Z,19.10
2019-04-10T14:10:51.565Z,19.39
2019-04-10T14:11:51.697Z,19.41
2019-04-10T14:12:51.603Z,19.69
2019-04-10T14:13:51.848Z,20.02
2019-04-10T14:14:51.640Z,20.39
2019-04-10T14:15:52.500Z,20.54
2019-04-10T14:16:51.670Z,20.39
2019-04-10T14:17:52.120Z,20.33
2019-04-10T14:18:52.657Z,20.42
2019-04-10T14:19:51.986Z,20.64
2019-04-10T14:20:53.299Z,20.41
2019-04-10T14:21:51.784Z,20.13
2019-04-10T14:22:51.816Z,18.84
2019-04-10T14:24:52.187Z,18.02
2019-04-10T14:25:51.866Z,18.42
2019-04-10T14:26:53.729Z,19.16
2019-04-10T14:27:52.313Z,19.55
2019-04-10T14:28:51.927Z,19.55